createdAt,value
2023-02-15T00:08:57.011Z,114.27
2023-02-15T00:19:03.161Z,120.03
2023-02-15T00:29:06.854Z,119.60
2023-02-15T00:39:12.558Z,119.47
2023-02-15T00:49:16.323Z,114.17
2023-02-15T00:59:21.545Z,108.67
2023-02-15T01:09:25.562Z,106.80
2023-02-15T01:19:30.707Z,111.77
2023-02-15T01:29:34.684Z,115.33
2023-02-15T01:39:39.929Z,104.90
2023-02-15T01:49:46.628Z,103.60
2023-02-15T01:59:54.543Z,102.77
2023-02-15T02:09:58.621Z,104.27
2023-02-15T02:20:29.200Z,103.47
2023-02-15T02:31:17.681Z,100.20
2023-02-15T02:41:34.154Z,102.63
2023-02-15T02:51:39.029Z,98.50
2023-02-15T03:01:49.227Z,102.73
2023-02-15T03:11:54.759Z,97.97
2023-02-15T03:22:10.403Z,101.97
2023-02-15T03:32:17.063Z,100.03
2023-02-15T03:42:28.709Z,100.57
2023-02-15T03:52:36.209Z,98.13
2023-02-15T04:02:50.111Z,98.00
2023-02-15T04:12:53.982Z,95.87
2023-02-15T04:23:16.618Z,97.17
2023-02-15T04:33:20.399Z,100.37
2023-02-15T04:43:25.574Z,98.80
2023-02-15T04:53:29.369Z,98.40
2023-02-15T05:03:35.087Z,100.73
2023-02-15T05:13:38.904Z,96.30
2023-02-15T05:23:44.173Z,100.90
2023-02-15T05:33:48.221Z,98.83
2023-02-15T05:43:53.575Z,100.30
2023-02-15T05:53:57.371Z,101.60
2023-02-15T06:04:02.624Z,101.10
2023-02-15T06:14:06.342Z,98.73
2023-02-15T06:24:12.301Z,102.13
2023-02-15T06:34:16.138Z,102.23
2023-02-15T06:44:21.548Z,96.90
2023-02-15T06:54:25.522Z,97.53
2023-02-15T07:04:31.139Z,102.40
2023-02-15T07:14:34.896Z,116.37
2023-02-15T07:24:40.085Z,104.77
2023-02-15T07:34:43.846Z,105.87
2023-02-15T07:44:49.274Z,99.73
2023-02-15T07:54:53.134Z,98.77
2023-02-15T08:04:58.398Z,103.07
2023-02-15T08:15:02.080Z,101.70
2023-02-15T08:25:07.995Z,109.20
2023-02-15T08:35:11.560Z,108.23
2023-02-15T08:45:16.534Z,113.37
2023-02-15T08:55:20.043Z,118.30
2023-02-15T09:05:25.308Z,118.83
2023-02-15T09:15:29.065Z,122.73
2023-02-15T09:25:33.877Z,122.53
2023-02-15T09:35:37.423Z,125.87
2023-02-15T09:46:18.607Z,126.77
2023-02-15T09:56:38.066Z,139.93
2023-02-15T10:06:50.628Z,134.70
2023-02-15T10:17:04.323Z,140.75
2023-02-15T10:27:15.792Z,153.20
2023-02-15T10:37:49.505Z,144.27
2023-02-15T10:48:12.959Z,160.88
2023-02-15T10:58:38.332Z,153.73
2023-02-15T11:08:47.976Z,152.50
2023-02-15T11:18:57.568Z,163.75
2023-02-15T11:29:12.165Z,159.85
2023-02-15T11:39:32.860Z,169.20
2023-02-15T11:49:41.676Z,156.05
2023-02-15T11:59:53.386Z,168.93
2023-02-15T12:10:14.944Z,160.63
2023-02-15T12:20:30.801Z,167.73
2023-02-15T12:30:39.534Z,149.75
2023-02-15T12:40:44.005Z,155.63
2023-02-15T12:50:55.145Z,166.18
2023-02-15T13:01:14.152Z,162.15
2023-02-15T13:11:30.300Z,160.38
2023-02-15T13:21:39.833Z,156.85
2023-02-15T13:31:46.914Z,166.15
2023-02-15T13:42:00.723Z,158.38
2023-02-15T13:52:20.013Z,176.10
2023-02-15T14:03:07.996Z,167.52
2023-02-15T14:13:52.871Z,158.43
2023-02-15T14:24:14.188Z,165.80
2023-02-15T14:34:26.744Z,152.57
2023-02-15T14:44:38.829Z,156.35
2023-02-15T14:55:37.346Z,138.90
2023-02-15T15:05:52.551Z,139.40
2023-02-15T15:15:57.580Z,128.13
2023-02-15T15:26:34.374Z,128.23
2023-02-15T15:37:46.689Z,112.53
2023-02-15T15:48:07.611Z,107.93
2023-02-15T15:58:19.489Z,114.37
2023-02-15T16:08:30.857Z,109.00
2023-02-15T16:18:39.963Z,104.87
2023-02-15T16:28:51.292Z,111.33
2023-02-15T16:39:20.666Z,109.73
2023-02-15T16:49:28.015Z,113.77
2023-02-15T16:59:38.363Z,104.33
2023-02-15T17:09:52.737Z,102.80
2023-02-15T17:19:58.009Z,117.23
2023-02-15T17:30:03.898Z,102.23
2023-02-15T17:40:22.551Z,104.67
2023-02-15T17:50:29.794Z,102.47
2023-02-15T18:00:57.390Z,101.70
2023-02-15T18:11:19.852Z,101.20
2023-02-15T18:21:26.207Z,100.93
2023-02-15T18:31:30.041Z,98.73
2023-02-15T18:41:35.156Z,102.77
2023-02-15T18:51:40.353Z,100.90
2023-02-15T19:01:45.686Z,99.63
2023-02-15T19:11:53.185Z,95.70
2023-02-15T19:21:58.369Z,105.23
2023-02-15T19:32:02.074Z,116.10
2023-02-15T19:42:07.764Z,114.97
2023-02-15T19:52:19.513Z,109.57
2023-02-15T20:02:24.428Z,115.07
2023-02-15T20:12:29.877Z,118.73
2023-02-15T20:22:34.933Z,112.97
2023-02-15T20:32:38.788Z,111.23
2023-02-15T20:42:44.728Z,115.63
2023-02-15T20:52:50.153Z,114.53
2023-02-15T21:02:59.483Z,117.10
2023-02-15T21:13:04.629Z,108.90
2023-02-15T21:23:15.412Z,122.47
2023-02-15T21:33:19.882Z,123.63
2023-02-15T21:43:43.769Z,129.73
2023-02-15T21:53:48.576Z,132.63
2023-02-15T22:03:54.810Z,117.90
2023-02-15T22:13:58.671Z,112.83
2023-02-15T22:24:03.629Z,128.70
2023-02-15T22:34:07.337Z,139.93
2023-02-15T22:44:14.341Z,143.17
2023-02-15T22:54:18.794Z,140.53
2023-02-15T23:04:27.420Z,140.53
2023-02-15T23:14:36.809Z,139.03
2023-02-15T23:24:42.666Z,135.57
2023-02-15T23:34:46.534Z,133.83
2023-02-15T23:44:51.748Z,134.80
2023-02-15T23:54:55.539Z,135.80
